sensor_id;sensor_type;location;lat;lon;timestamp;P1;durP1;ratioP1;P2;durP2;ratioP2
52796;SDS011;38666;43.348;12.584;2022-11-20T06:55:05;8.95;;;2.83;;
52796;SDS011;38666;43.348;12.584;2022-11-20T06:57:31;6.20;;;3.17;;
52796;SDS011;38666;43.348;12.584;2022-11-20T06:59:56;4.78;;;2.85;;
52796;SDS011;38666;43.348;12.584;2022-11-20T07:02:22;7.27;;;3.63;;
52796;SDS011;38666;43.348;12.584;2022-11-20T07:04:47;7.38;;;4.00;;
52796;SDS011;38666;43.348;12.584;2022-11-20T07:07:13;6.33;;;3.40;;
52796;SDS011;38666;43.348;12.584;2022-11-20T07:09:38;9.68;;;3.70;;
52796;SDS011;38666;43.348;12.584;2022-11-20T07:12:04;5.30;;;3.30;;
52796;SDS011;38666;43.348;12.584;2022-11-20T07:14:30;18.73;;;6.30;;
52796;SDS011;38666;43.348;12.584;2022-11-20T07:16:55;8.43;;;4.88;;
52796;SDS011;38666;43.348;12.584;2022-11-20T07:19:20;11.83;;;6.43;;
52796;SDS011;38666;43.348;12.584;2022-11-20T07:21:46;10.83;;;6.23;;
52796;SDS011;38666;43.348;12.584;2022-11-20T07:24:11;10.40;;;5.20;;
52796;SDS011;38666;43.348;12.584;2022-11-20T07:26:37;10.37;;;5.67;;
52796;SDS011;38666;43.348;12.584;2022-11-20T07:29:02;7.13;;;3.65;;
52796;SDS011;38666;43.348;12.584;2022-11-20T07:31:28;6.95;;;3.50;;
52796;SDS011;38666;43.348;12.584;2022-11-20T07:33:54;7.87;;;3.23;;
52796;SDS011;38666;43.348;12.584;2022-11-20T07:36:19;6.30;;;3.10;;
52796;SDS011;38666;43.348;12.584;2022-11-20T07:38:44;5.80;;;3.30;;
52796;SDS011;38666;43.348;12.584;2022-11-20T07:41:10;7.73;;;3.63;;
52796;SDS011;38666;43.348;12.584;2022-11-20T07:43:35;6.87;;;3.60;;
52796;SDS011;38666;43.348;12.584;2022-11-20T07:46:01;6.23;;;3.53;;
52796;SDS011;38666;43.348;12.584;2022-11-20T07:48:26;7.07;;;3.22;;
52796;SDS011;38666;43.348;12.584;2022-11-20T07:50:55;6.20;;;2.93;;
52796;SDS011;38666;43.348;12.584;2022-11-20T07:53:22;7.05;;;2.03;;
52796;SDS011;38666;43.348;12.584;2022-11-20T07:55:47;5.82;;;2.50;;
52796;SDS011;38666;43.348;12.584;2022-11-20T07:58:13;19.30;;;2.53;;
52796;SDS011;38666;43.348;12.584;2022-11-20T08:00:39;4.43;;;2.30;;
52796;SDS011;38666;43.348;12.584;2022-11-20T08:03:05;5.18;;;2.15;;
52796;SDS011;38666;43.348;12.584;2022-11-20T08:05:32;4.35;;;2.38;;
52796;SDS011;38666;43.348;12.584;2022-11-20T08:07:57;6.37;;;2.80;;
52796;SDS011;38666;43.348;12.584;2022-11-20T08:10:23;10.07;;;4.38;;
52796;SDS011;38666;43.348;12.584;2022-11-20T08:12:49;8.67;;;4.23;;
52796;SDS011;38666;43.348;12.584;2022-11-20T08:15:35;8.95;;;4.95;;
52796;SDS011;38666;43.348;12.584;2022-11-20T08:20:27;10.67;;;4.70;;
52796;SDS011;38666;43.348;12.584;2022-11-20T08:22:56;8.55;;;5.10;;
52796;SDS011;38666;43.348;12.584;2022-11-20T08:25:23;8.93;;;4.78;;
52796;SDS011;38666;43.348;12.584;2022-11-20T08:27:48;7.00;;;2.73;;
52796;SDS011;38666;43.348;12.584;2022-11-20T08:30:13;5.13;;;2.57;;
52796;SDS011;38666;43.348;12.584;2022-11-20T08:32:39;2.70;;;1.03;;
52796;SDS011;38666;43.348;12.584;2022-11-20T08:35:04;2.03;;;0.80;;
52796;SDS011;38666;43.348;12.584;2022-11-20T08:37:30;4.05;;;1.58;;
52796;SDS011;38666;43.348;12.584;2022-11-20T08:39:55;2.83;;;1.00;;
52796;SDS011;38666;43.348;12.584;2022-11-20T08:42:22;1.60;;;0.70;;
52796;SDS011;38666;43.348;12.584;2022-11-20T08:44:47;1.60;;;0.60;;
52796;SDS011;38666;43.348;12.584;2022-11-20T08:47:13;2.97;;;0.80;;
52796;SDS011;38666;43.348;12.584;2022-11-20T08:49:38;2.10;;;0.90;;
52796;SDS011;38666;43.348;12.584;2022-11-20T08:52:03;1.60;;;0.60;;
52796;SDS011;38666;43.348;12.584;2022-11-20T08:54:29;1.40;;;0.40;;
52796;SDS011;38666;43.348;12.584;2022-11-20T08:56:54;2.38;;;0.50;;
52796;SDS011;38666;43.348;12.584;2022-11-20T08:59:19;1.17;;;0.40;;
52796;SDS011;38666;43.348;12.584;2022-11-20T09:01:45;0.80;;;0.30;;
52796;SDS011;38666;43.348;12.584;2022-11-20T09:04:10;1.40;;;0.50;;
52796;SDS011;38666;43.348;12.584;2022-11-20T09:06:36;1.42;;;0.43;;
52796;SDS011;38666;43.348;12.584;2022-11-20T09:09:02;2.10;;;0.77;;
52796;SDS011;38666;43.348;12.584;2022-11-20T09:11:27;1.50;;;0.57;;
52796;SDS011;38666;43.348;12.584;2022-11-20T09:13:53;2.37;;;0.50;;
52796;SDS011;38666;43.348;12.584;2022-11-20T09:16:18;2.73;;;0.77;;
52796;SDS011;38666;43.348;12.584;2022-11-20T09:18:44;2.10;;;0.63;;
52796;SDS011;38666;43.348;12.584;2022-11-20T09:21:10;1.13;;;0.37;;
52796;SDS011;38666;43.348;12.584;2022-11-20T09:23:37;1.67;;;0.70;;
52796;SDS011;38666;43.348;12.584;2022-11-20T09:26:03;2.20;;;0.90;;
52796;SDS011;38666;43.348;12.584;2022-11-20T09:28:30;2.65;;;1.05;;
52796;SDS011;38666;43.348;12.584;2022-11-20T09:30:56;0.93;;;0.50;;
52796;SDS011;38666;43.348;12.584;2022-11-20T09:33:21;0.75;;;0.50;;
52796;SDS011;38666;43.348;12.584;2022-11-20T09:35:47;4.00;;;0.63;;
52796;SDS011;38666;43.348;12.584;2022-11-20T09:38:12;2.17;;;0.70;;
52796;SDS011;38666;43.348;12.584;2022-11-20T09:54:22;1.90;;;0.52;;
52796;SDS011;38666;43.348;12.584;2022-11-20T09:57:01;1.58;;;0.60;;
52796;SDS011;38666;43.348;12.584;2022-11-20T10:00:13;1.55;;;0.73;;
52796;SDS011;38666;43.348;12.584;2022-11-20T10:02:28;1.35;;;0.50;;
52796;SDS011;38666;43.348;12.584;2022-11-20T10:10:36;7.43;;;1.00;;
52796;SDS011;38666;43.348;12.584;2022-11-20T10:18:45;1.43;;;0.80;;
52796;SDS011;38666;43.348;12.584;2022-11-20T10:24:20;1.23;;;0.60;;
52796;SDS011;38666;43.348;12.584;2022-11-20T10:27:09;2.92;;;0.70;;
52796;SDS011;38666;43.348;12.584;2022-11-20T10:29:59;4.75;;;0.90;;
52796;SDS011;38666;43.348;12.584;2022-11-20T10:32:32;2.22;;;0.80;;
52796;SDS011;38666;43.348;12.584;2022-11-20T10:35:04;0.95;;;0.60;;
52796;SDS011;38666;43.348;12.584;2022-11-20T10:37:44;4.03;;;0.95;;
52796;SDS011;38666;43.348;12.584;2022-11-20T10:43:00;3.85;;;1.20;;
52796;SDS011;38666;43.348;12.584;2022-11-20T10:45:53;6.95;;;1.10;;
52796;SDS011;38666;43.348;12.584;2022-11-20T10:48:24;1.83;;;0.80;;
52796;SDS011;38666;43.348;12.584;2022-11-20T10:50:59;3.17;;;0.90;;
52796;SDS011;38666;43.348;12.584;2022-11-20T10:56:56;1.90;;;0.82;;
52796;SDS011;38666;43.348;12.584;2022-11-20T11:02:23;1.20;;;0.60;;
52796;SDS011;38666;43.348;12.584;2022-11-20T11:04:51;3.77;;;1.20;;
52796;SDS011;38666;43.348;12.584;2022-11-20T11:09:50;6.47;;;1.70;;
52796;SDS011;38666;43.348;12.584;2022-11-20T11:12:18;2.10;;;0.60;;
52796;SDS011;38666;43.348;12.584;2022-11-20T11:14:47;3.83;;;1.13;;
52796;SDS011;38666;43.348;12.584;2022-11-20T11:17:20;2.35;;;0.77;;
52796;SDS011;38666;43.348;12.584;2022-11-20T11:22:42;2.92;;;1.23;;
52796;SDS011;38666;43.348;12.584;2022-11-20T11:25:20;12.95;;;6.75;;
52796;SDS011;38666;43.348;12.584;2022-11-20T11:27:46;8.57;;;4.85;;
52796;SDS011;38666;43.348;12.584;2022-11-20T11:30:13;5.80;;;0.60;;
52796;SDS011;38666;43.348;12.584;2022-11-20T11:32:41;1.85;;;0.70;;
52796;SDS011;38666;43.348;12.584;2022-11-20T11:35:18;29.92;;;13.88;;
52796;SDS011;38666;43.348;12.584;2022-11-20T11:37:49;48.72;;;19.13;;
52796;SDS011;38666;43.348;12.584;2022-11-20T11:40:16;24.35;;;10.30;;
52796;SDS011;38666;43.348;12.584;2022-11-20T11:42:44;8.65;;;3.92;;
52796;SDS011;38666;43.348;12.584;2022-11-20T11:45:18;8.60;;;2.90;;
52796;SDS011;38666;43.348;12.584;2022-11-20T11:47:45;2.40;;;1.00;;
52796;SDS011;38666;43.348;12.584;2022-11-20T11:50:14;4.50;;;1.65;;
52796;SDS011;38666;43.348;12.584;2022-11-20T11:55:42;7.32;;;2.92;;
52796;SDS011;38666;43.348;12.584;2022-11-20T11:58:14;14.43;;;5.70;;
52796;SDS011;38666;43.348;12.584;2022-11-20T12:03:44;9.27;;;4.28;;
52796;SDS011;38666;43.348;12.584;2022-11-20T12:06:42;2.95;;;0.82;;
52796;SDS011;38666;43.348;12.584;2022-11-20T12:09:10;1.70;;;0.57;;
52796;SDS011;38666;43.348;12.584;2022-11-20T12:11:45;7.93;;;1.90;;
52796;SDS011;38666;43.348;12.584;2022-11-20T12:14:22;8.60;;;3.10;;
52796;SDS011;38666;43.348;12.584;2022-11-20T12:17:01;4.93;;;1.17;;
52796;SDS011;38666;43.348;12.584;2022-11-20T12:19:31;6.05;;;2.35;;
52796;SDS011;38666;43.348;12.584;2022-11-20T12:38:26;11.30;;;3.78;;
52796;SDS011;38666;43.348;12.584;2022-11-20T12:47:21;11.15;;;5.15;;
52796;SDS011;38666;43.348;12.584;2022-11-20T12:52:48;13.52;;;4.90;;
52796;SDS011;38666;43.348;12.584;2022-11-20T13:01:32;7.88;;;2.10;;
52796;SDS011;38666;43.348;12.584;2022-11-20T13:06:43;13.40;;;5.60;;
52796;SDS011;38666;43.348;12.584;2022-11-20T13:09:14;7.85;;;3.55;;
52796;SDS011;38666;43.348;12.584;2022-11-20T13:11:46;3.20;;;0.90;;
52796;SDS011;38666;43.348;12.584;2022-11-20T13:14:14;5.00;;;1.33;;
52796;SDS011;38666;43.348;12.584;2022-11-20T13:16:58;4.25;;;1.88;;
52796;SDS011;38666;43.348;12.584;2022-11-20T13:19:25;12.60;;;3.22;;
52796;SDS011;38666;43.348;12.584;2022-11-20T13:21:52;27.88;;;10.60;;
52796;SDS011;38666;43.348;12.584;2022-11-20T13:29:33;3.63;;;1.20;;
52796;SDS011;38666;43.348;12.584;2022-11-20T13:32:04;15.07;;;7.03;;
52796;SDS011;38666;43.348;12.584;2022-11-20T13:34:38;30.50;;;14.05;;
52796;SDS011;38666;43.348;12.584;2022-11-20T13:37:04;7.40;;;2.50;;
52796;SDS011;38666;43.348;12.584;2022-11-20T13:39:34;2.85;;;1.10;;
52796;SDS011;38666;43.348;12.584;2022-11-20T13:44:46;4.75;;;1.38;;
52796;SDS011;38666;43.348;12.584;2022-11-20T13:47:26;9.00;;;3.42;;
52796;SDS011;38666;43.348;12.584;2022-11-20T13:49:53;4.05;;;1.10;;
52796;SDS011;38666;43.348;12.584;2022-11-20T13:57:58;7.50;;;3.25;;
52796;SDS011;38666;43.348;12.584;2022-11-20T14:00:43;2.63;;;0.93;;
52796;SDS011;38666;43.348;12.584;2022-11-20T14:03:20;4.32;;;1.25;;
52796;SDS011;38666;43.348;12.584;2022-11-20T14:05:59;10.70;;;4.75;;
52796;SDS011;38666;43.348;12.584;2022-11-20T14:11:19;7.80;;;2.42;;
52796;SDS011;38666;43.348;12.584;2022-11-20T14:16:34;1.83;;;0.95;;
52796;SDS011;38666;43.348;12.584;2022-11-20T14:19:21;3.28;;;1.33;;
52796;SDS011;38666;43.348;12.584;2022-11-20T14:21:52;5.93;;;2.10;;
52796;SDS011;38666;43.348;12.584;2022-11-20T14:24:20;7.40;;;1.98;;
52796;SDS011;38666;43.348;12.584;2022-11-20T14:26:47;9.07;;;4.05;;
52796;SDS011;38666;43.348;12.584;2022-11-20T14:29:19;10.98;;;4.85;;
52796;SDS011;38666;43.348;12.584;2022-11-20T14:31:50;1.85;;;0.75;;
52796;SDS011;38666;43.348;12.584;2022-11-20T14:34:24;7.43;;;2.03;;
52796;SDS011;38666;43.348;12.584;2022-11-20T14:36:53;2.92;;;1.42;;
52796;SDS011;38666;43.348;12.584;2022-11-20T14:39:25;8.10;;;1.50;;
52796;SDS011;38666;43.348;12.584;2022-11-20T14:41:55;9.98;;;2.35;;
52796;SDS011;38666;43.348;12.584;2022-11-20T14:44:22;3.73;;;1.00;;
52796;SDS011;38666;43.348;12.584;2022-11-20T14:46:54;3.67;;;0.85;;
52796;SDS011;38666;43.348;12.584;2022-11-20T14:49:20;2.00;;;0.43;;
52796;SDS011;38666;43.348;12.584;2022-11-20T14:51:46;1.83;;;0.90;;
52796;SDS011;38666;43.348;12.584;2022-11-20T14:54:22;2.45;;;0.85;;
52796;SDS011;38666;43.348;12.584;2022-11-20T14:57:01;1.42;;;0.68;;
52796;SDS011;38666;43.348;12.584;2022-11-20T14:59:32;8.60;;;3.15;;
52796;SDS011;38666;43.348;12.584;2022-11-20T15:02:00;8.15;;;2.83;;
52796;SDS011;38666;43.348;12.584;2022-11-20T15:04:30;1.95;;;0.65;;
52796;SDS011;38666;43.348;12.584;2022-11-20T15:06:57;6.93;;;1.83;;
52796;SDS011;38666;43.348;12.584;2022-11-20T15:09:24;1.50;;;0.60;;
52796;SDS011;38666;43.348;12.584;2022-11-20T15:14:23;2.63;;;0.60;;
52796;SDS011;38666;43.348;12.584;2022-11-20T15:16:50;1.17;;;0.57;;
52796;SDS011;38666;43.348;12.584;2022-11-20T15:19:20;1.00;;;0.50;;
52796;SDS011;38666;43.348;12.584;2022-11-20T15:21:47;2.00;;;0.65;;
52796;SDS011;38666;43.348;12.584;2022-11-20T15:24:13;0.73;;;0.43;;
52796;SDS011;38666;43.348;12.584;2022-11-20T15:26:39;8.33;;;2.87;;
52796;SDS011;38666;43.348;12.584;2022-11-20T15:29:07;2.00;;;1.07;;
52796;SDS011;38666;43.348;12.584;2022-11-20T15:31:34;6.37;;;2.73;;
52796;SDS011;38666;43.348;12.584;2022-11-20T15:34:00;1.77;;;0.83;;
52796;SDS011;38666;43.348;12.584;2022-11-20T15:36:25;1.13;;;0.50;;
52796;SDS011;38666;43.348;12.584;2022-11-20T15:38:50;2.83;;;1.37;;
52796;SDS011;38666;43.348;12.584;2022-11-20T15:41:16;17.93;;;6.63;;
52796;SDS011;38666;43.348;12.584;2022-11-20T15:43:41;30.92;;;14.90;;
52796;SDS011;38666;43.348;12.584;2022-11-20T15:46:13;10.47;;;3.53;;
52796;SDS011;38666;43.348;12.584;2022-11-20T15:48:45;10.90;;;2.72;;
52796;SDS011;38666;43.348;12.584;2022-11-20T15:54:00;11.15;;;4.43;;
52796;SDS011;38666;43.348;12.584;2022-11-20T15:56:27;5.25;;;2.38;;
52796;SDS011;38666;43.348;12.584;2022-11-20T15:58:52;3.83;;;1.90;;
52796;SDS011;38666;43.348;12.584;2022-11-20T16:01:18;21.60;;;8.80;;
52796;SDS011;38666;43.348;12.584;2022-11-20T16:03:46;18.30;;;5.75;;
52796;SDS011;38666;43.348;12.584;2022-11-20T16:06:12;24.17;;;10.30;;
52796;SDS011;38666;43.348;12.584;2022-11-20T16:08:37;4.47;;;1.53;;
52796;SDS011;38666;43.348;12.584;2022-11-20T16:11:03;32.70;;;12.02;;
52796;SDS011;38666;43.348;12.584;2022-11-20T16:13:30;25.58;;;10.75;;
52796;SDS011;38666;43.348;12.584;2022-11-20T16:16:22;24.95;;;10.48;;
52796;SDS011;38666;43.348;12.584;2022-11-20T16:18:50;11.07;;;4.72;;
52796;SDS011;38666;43.348;12.584;2022-11-20T16:21:16;19.15;;;9.63;;
52796;SDS011;38666;43.348;12.584;2022-11-20T16:23:42;18.23;;;10.23;;
52796;SDS011;38666;43.348;12.584;2022-11-20T16:26:14;8.33;;;3.77;;
52796;SDS011;38666;43.348;12.584;2022-11-20T16:28:45;8.38;;;3.83;;
52796;SDS011;38666;43.348;12.584;2022-11-20T16:31:15;9.63;;;5.00;;
52796;SDS011;38666;43.348;12.584;2022-11-20T16:33:41;10.85;;;5.72;;
52796;SDS011;38666;43.348;12.584;2022-11-20T16:36:11;12.77;;;5.33;;
52796;SDS011;38666;43.348;12.584;2022-11-20T16:38:38;12.25;;;5.82;;
52796;SDS011;38666;43.348;12.584;2022-11-20T16:41:04;13.13;;;6.30;;
52796;SDS011;38666;43.348;12.584;2022-11-20T16:43:30;26.83;;;10.40;;
52796;SDS011;38666;43.348;12.584;2022-11-20T16:45:56;24.87;;;12.30;;
52796;SDS011;38666;43.348;12.584;2022-11-20T16:48:22;31.20;;;15.32;;
52796;SDS011;38666;43.348;12.584;2022-11-20T16:50:51;19.20;;;8.33;;
52796;SDS011;38666;43.348;12.584;2022-11-20T16:53:18;15.47;;;7.63;;
52796;SDS011;38666;43.348;12.584;2022-11-20T16:55:44;18.40;;;8.23;;
52796;SDS011;38666;43.348;12.584;2022-11-20T16:58:10;12.80;;;6.17;;
52796;SDS011;38666;43.348;12.584;2022-11-20T17:00:37;10.55;;;5.82;;
52796;SDS011;38666;43.348;12.584;2022-11-20T17:03:03;12.77;;;6.60;;
52796;SDS011;38666;43.348;12.584;2022-11-20T17:05:32;19.40;;;7.70;;
52796;SDS011;38666;43.348;12.584;2022-11-20T17:07:59;26.98;;;13.60;;
52796;SDS011;38666;43.348;12.584;2022-11-20T17:10:24;18.40;;;9.77;;
52796;SDS011;38666;43.348;12.584;2022-11-20T17:12:50;25.23;;;11.67;;
52796;SDS011;38666;43.348;12.584;2022-11-20T17:15:16;26.47;;;14.90;;
52796;SDS011;38666;43.348;12.584;2022-11-20T17:17:41;26.00;;;13.43;;
52796;SDS011;38666;43.348;12.584;2022-11-20T17:20:08;26.38;;;11.98;;
52796;SDS011;38666;43.348;12.584;2022-11-20T17:22:34;29.48;;;12.00;;
52796;SDS011;38666;43.348;12.584;2022-11-20T17:24:59;26.27;;;13.73;;
52796;SDS011;38666;43.348;12.584;2022-11-20T17:27:25;16.23;;;8.17;;
52796;SDS011;38666;43.348;12.584;2022-11-20T17:29:50;21.13;;;10.18;;
52796;SDS011;38666;43.348;12.584;2022-11-20T17:32:18;25.77;;;14.05;;
52796;SDS011;38666;43.348;12.584;2022-11-20T17:34:44;29.73;;;16.08;;
52796;SDS011;38666;43.348;12.584;2022-11-20T17:37:09;31.50;;;15.73;;
52796;SDS011;38666;43.348;12.584;2022-11-20T17:39:35;26.53;;;14.73;;
52796;SDS011;38666;43.348;12.584;2022-11-20T17:42:00;24.07;;;12.17;;
52796;SDS011;38666;43.348;12.584;2022-11-20T17:44:44;76.38;;;37.03;;
52796;SDS011;38666;43.348;12.584;2022-11-20T17:47:11;82.70;;;38.83;;
52796;SDS011;38666;43.348;12.584;2022-11-20T17:49:36;53.03;;;24.07;;
52796;SDS011;38666;43.348;12.584;2022-11-20T17:52:02;28.63;;;12.23;;
52796;SDS011;38666;43.348;12.584;2022-11-20T17:54:28;26.27;;;14.23;;
52796;SDS011;38666;43.348;12.584;2022-11-20T17:56:53;32.60;;;15.27;;
52796;SDS011;38666;43.348;12.584;2022-11-20T17:59:37;41.40;;;18.55;;
52796;SDS011;38666;43.348;12.584;2022-11-20T18:02:03;29.13;;;14.23;;
52796;SDS011;38666;43.348;12.584;2022-11-20T18:04:28;21.35;;;10.70;;
52796;SDS011;38666;43.348;12.584;2022-11-20T18:06:53;24.70;;;12.53;;
52796;SDS011;38666;43.348;12.584;2022-11-20T18:09:19;26.97;;;14.33;;
52796;SDS011;38666;43.348;12.584;2022-11-20T18:11:44;48.30;;;17.40;;
52796;SDS011;38666;43.348;12.584;2022-11-20T18:14:11;29.47;;;15.43;;
52796;SDS011;38666;43.348;12.584;2022-11-20T18:17:06;20.55;;;9.77;;
52796;SDS011;38666;43.348;12.584;2022-11-20T18:19:34;23.30;;;12.10;;
52796;SDS011;38666;43.348;12.584;2022-11-20T18:22:02;22.33;;;10.98;;
52796;SDS011;38666;43.348;12.584;2022-11-20T18:24:29;25.60;;;12.73;;
52796;SDS011;38666;43.348;12.584;2022-11-20T18:26:56;25.85;;;12.35;;
52796;SDS011;38666;43.348;12.584;2022-11-20T18:29:22;22.88;;;11.30;;
52796;SDS011;38666;43.348;12.584;2022-11-20T18:31:48;24.33;;;11.77;;
52796;SDS011;38666;43.348;12.584;2022-11-20T18:34:14;39.00;;;19.63;;
52796;SDS011;38666;43.348;12.584;2022-11-20T18:36:39;33.53;;;15.45;;
52796;SDS011;38666;43.348;12.584;2022-11-20T18:39:06;52.88;;;28.73;;
52796;SDS011;38666;43.348;12.584;2022-11-20T18:41:31;52.07;;;24.67;;
52796;SDS011;38666;43.348;12.584;2022-11-20T18:44:20;28.55;;;13.30;;
52796;SDS011;38666;43.348;12.584;2022-11-20T18:47:05;50.22;;;22.73;;
52796;SDS011;38666;43.348;12.584;2022-11-20T18:49:32;38.08;;;14.65;;
52796;SDS011;38666;43.348;12.584;2022-11-20T18:51:58;29.85;;;15.40;;
